sensor_id;sensor_type;location;lat;lon;timestamp;pressure;altitude;pressure_sealevel;temperature;humidity
78229;BME280;74448;49.082;9.152;2024-02-26T00:01:48;97491.22;;;9.14;59.71
78229;BME280;74448;49.082;9.152;2024-02-26T00:04:14;97482.13;;;9.08;59.64
78229;BME280;74448;49.082;9.152;2024-02-26T00:06:43;97485.59;;;9.09;59.51
78229;BME280;74448;49.082;9.152;2024-02-26T00:09:10;97488.22;;;9.09;59.82
78229;BME280;74448;49.082;9.152;2024-02-26T00:11:37;97490.03;;;9.08;59.87
78229;BME280;74448;49.082;9.152;2024-02-26T00:14:03;97492.81;;;9.07;59.91
78229;BME280;74448;49.082;9.152;2024-02-26T00:16:30;97486.69;;;9.06;59.80
78229;BME280;74448;49.082;9.152;2024-02-26T00:18:57;97488.50;;;9.06;59.91
78229;BME280;74448;49.082;9.152;2024-02-26T00:21:24;97491.97;;;9.06;59.83
78229;BME280;74448;49.082;9.152;2024-02-26T00:23:52;97485.06;;;9.05;59.63
78229;BME280;74448;49.082;9.152;2024-02-26T00:26:19;97482.06;;;9.00;59.74
78229;BME280;74448;49.082;9.152;2024-02-26T00:28:45;97480.59;;;9.06;59.78
78229;BME280;74448;49.082;9.152;2024-02-26T00:31:12;97481.44;;;9.06;59.70
78229;BME280;74448;49.082;9.152;2024-02-26T00:33:39;97477.63;;;9.01;59.75
78229;BME280;74448;49.082;9.152;2024-02-26T00:36:06;97478.44;;;9.01;59.78
78229;BME280;74448;49.082;9.152;2024-02-26T00:38:33;97475.81;;;9.01;59.91
78229;BME280;74448;49.082;9.152;2024-02-26T00:40:59;97475.97;;;9.00;59.92
78229;BME280;74448;49.082;9.152;2024-02-26T00:43:26;97464.44;;;9.01;60.00
78229;BME280;74448;49.082;9.152;2024-02-26T00:45:52;97467.06;;;9.01;59.88
78229;BME280;74448;49.082;9.152;2024-02-26T00:48:19;97466.53;;;8.97;59.83
78229;BME280;74448;49.082;9.152;2024-02-26T00:50:46;97471.66;;;8.98;59.93
78229;BME280;74448;49.082;9.152;2024-02-26T00:53:12;97471.66;;;8.98;59.97
78229;BME280;74448;49.082;9.152;2024-02-26T00:55:39;97479.72;;;8.97;60.00
78229;BME280;74448;49.082;9.152;2024-02-26T00:58:05;97476.09;;;8.98;60.10
78229;BME280;74448;49.082;9.152;2024-02-26T01:00:32;97474.44;;;8.97;59.94
78229;BME280;74448;49.082;9.152;2024-02-26T01:02:59;97470.16;;;8.96;60.12
78229;BME280;74448;49.082;9.152;2024-02-26T01:05:26;97477.25;;;8.95;60.08
78229;BME280;74448;49.082;9.152;2024-02-26T01:07:53;97485.16;;;8.95;60.05
78229;BME280;74448;49.082;9.152;2024-02-26T01:10:20;97470.47;;;8.93;60.08
78229;BME280;74448;49.082;9.152;2024-02-26T01:12:46;97488.63;;;8.96;60.05
78229;BME280;74448;49.082;9.152;2024-02-26T01:15:14;97492.38;;;8.93;60.12
78229;BME280;74448;49.082;9.152;2024-02-26T01:17:41;97488.09;;;8.92;59.98
78229;BME280;74448;49.082;9.152;2024-02-26T01:20:08;97476.72;;;8.92;60.18
78229;BME280;74448;49.082;9.152;2024-02-26T01:22:35;97487.25;;;8.92;59.95
78229;BME280;74448;49.082;9.152;2024-02-26T01:25:02;97483.81;;;8.91;60.05
78229;BME280;74448;49.082;9.152;2024-02-26T01:27:29;97483.94;;;8.90;60.26
78229;BME280;74448;49.082;9.152;2024-02-26T01:29:55;97481.31;;;8.90;60.26
78229;BME280;74448;49.082;9.152;2024-02-26T01:32:22;97481.47;;;8.88;60.17
78229;BME280;74448;49.082;9.152;2024-02-26T01:34:49;97509.63;;;8.88;60.42
78229;BME280;74448;49.082;9.152;2024-02-26T01:37:15;97506.16;;;8.87;60.46
78229;BME280;74448;49.082;9.152;2024-02-26T01:39:42;97519.34;;;8.87;60.28
78229;BME280;74448;49.082;9.152;2024-02-26T01:42:08;97513.25;;;8.87;60.40
78229;BME280;74448;49.082;9.152;2024-02-26T01:44:35;97518.66;;;8.85;60.11
78229;BME280;74448;49.082;9.152;2024-02-26T01:47:02;97528.88;;;8.88;60.19
78229;BME280;74448;49.082;9.152;2024-02-26T01:49:29;97520.44;;;8.85;60.36
78229;BME280;74448;49.082;9.152;2024-02-26T01:51:57;97507.28;;;8.85;60.21
78229;BME280;74448;49.082;9.152;2024-02-26T01:54:25;97502.00;;;8.85;60.22
78229;BME280;74448;49.082;9.152;2024-02-26T01:56:52;97487.19;;;8.84;60.32
78229;BME280;74448;49.082;9.152;2024-02-26T01:59:18;97488.19;;;8.83;60.36
78229;BME280;74448;49.082;9.152;2024-02-26T02:01:48;97490.00;;;8.82;60.23
78229;BME280;74448;49.082;9.152;2024-02-26T02:04:18;97475.00;;;8.83;60.33
78229;BME280;74448;49.082;9.152;2024-02-26T02:06:45;97464.75;;;8.80;60.53
78229;BME280;74448;49.082;9.152;2024-02-26T02:09:12;97453.41;;;8.79;60.44
78229;BME280;74448;49.082;9.152;2024-02-26T02:11:39;97451.88;;;8.77;60.68
78229;BME280;74448;49.082;9.152;2024-02-26T02:14:06;97452.72;;;8.77;60.68
78229;BME280;74448;49.082;9.152;2024-02-26T02:16:32;97439.53;;;8.77;60.49
78229;BME280;74448;49.082;9.152;2024-02-26T02:18:59;97435.25;;;8.76;60.50
78229;BME280;74448;49.082;9.152;2024-02-26T02:21:26;97459.25;;;8.73;60.52
78229;BME280;74448;49.082;9.152;2024-02-26T02:23:52;97465.06;;;8.77;60.34
78229;BME280;74448;49.082;9.152;2024-02-26T02:26:20;97478.91;;;8.79;60.60
78229;BME280;74448;49.082;9.152;2024-02-26T02:28:48;97500.81;;;8.79;60.30
78229;BME280;74448;49.082;9.152;2024-02-26T02:31:15;97517.75;;;8.77;60.57
78229;BME280;74448;49.082;9.152;2024-02-26T02:33:42;97530.78;;;8.78;60.27
78229;BME280;74448;49.082;9.152;2024-02-26T02:36:09;97523.16;;;8.75;60.72
78229;BME280;74448;49.082;9.152;2024-02-26T02:38:37;97514.44;;;8.75;60.58
78229;BME280;74448;49.082;9.152;2024-02-26T02:41:04;97502.91;;;8.76;60.45
78229;BME280;74448;49.082;9.152;2024-02-26T02:43:31;97480.78;;;8.68;60.54
78229;BME280;74448;49.082;9.152;2024-02-26T02:45:58;97483.28;;;8.70;60.60
78229;BME280;74448;49.082;9.152;2024-02-26T02:48:24;97497.13;;;8.72;60.50
78229;BME280;74448;49.082;9.152;2024-02-26T02:50:51;97496.13;;;8.73;60.50
78229;BME280;74448;49.082;9.152;2024-02-26T02:53:18;97524.44;;;8.71;60.80
78229;BME280;74448;49.082;9.152;2024-02-26T02:55:44;97524.44;;;8.71;60.77
78229;BME280;74448;49.082;9.152;2024-02-26T02:58:11;97526.25;;;8.70;60.66
78229;BME280;74448;49.082;9.152;2024-02-26T03:00:38;97523.63;;;8.70;60.86
78229;BME280;74448;49.082;9.152;2024-02-26T03:03:04;97522.81;;;8.70;60.46
78229;BME280;74448;49.082;9.152;2024-02-26T03:05:31;97524.75;;;8.68;60.84
78229;BME280;74448;49.082;9.152;2024-02-26T03:07:58;97523.91;;;8.67;60.87
78229;BME280;74448;49.082;9.152;2024-02-26T03:10:24;97520.47;;;8.67;60.87
78229;BME280;74448;49.082;9.152;2024-02-26T03:12:51;97523.91;;;8.67;60.86
78229;BME280;74448;49.082;9.152;2024-02-26T03:15:18;97534.28;;;8.69;60.83
78229;BME280;74448;49.082;9.152;2024-02-26T03:17:44;97530.84;;;8.68;60.72
78229;BME280;74448;49.082;9.152;2024-02-26T03:20:11;97531.66;;;8.69;60.94
78229;BME280;74448;49.082;9.152;2024-02-26T03:22:40;97534.59;;;8.66;60.80
78229;BME280;74448;49.082;9.152;2024-02-26T03:25:07;97533.91;;;8.64;61.02
78229;BME280;74448;49.082;9.152;2024-02-26T03:27:34;97528.66;;;8.64;60.84
78229;BME280;74448;49.082;9.152;2024-02-26T03:30:02;97533.91;;;8.64;60.80
78229;BME280;74448;49.082;9.152;2024-02-26T03:32:30;97519.09;;;8.63;60.93
78229;BME280;74448;49.082;9.152;2024-02-26T03:34:56;97526.19;;;8.62;60.94
78229;BME280;74448;49.082;9.152;2024-02-26T03:37:23;97537.53;;;8.63;60.83
78229;BME280;74448;49.082;9.152;2024-02-26T03:39:50;97541.16;;;8.62;60.87
78229;BME280;74448;49.082;9.152;2024-02-26T03:42:16;97533.25;;;8.62;60.82
78229;BME280;74448;49.082;9.152;2024-02-26T03:44:43;97529.91;;;8.60;61.16
78229;BME280;74448;49.082;9.152;2024-02-26T03:47:10;97543.09;;;8.60;61.06
78229;BME280;74448;49.082;9.152;2024-02-26T03:49:36;97547.69;;;8.58;61.06
78229;BME280;74448;49.082;9.152;2024-02-26T03:52:03;97539.78;;;8.58;61.13
78229;BME280;74448;49.082;9.152;2024-02-26T03:54:30;97540.63;;;8.58;61.03
78229;BME280;74448;49.082;9.152;2024-02-26T03:56:56;97540.75;;;8.57;61.10
78229;BME280;74448;49.082;9.152;2024-02-26T03:59:23;97533.69;;;8.57;61.03
78229;BME280;74448;49.082;9.152;2024-02-26T04:01:51;97522.31;;;8.57;61.03
78229;BME280;74448;49.082;9.152;2024-02-26T04:04:18;97509.75;;;8.51;61.06
78229;BME280;74448;49.082;9.152;2024-02-26T04:06:47;97516.22;;;8.56;61.13
78229;BME280;74448;49.082;9.152;2024-02-26T04:09:14;97511.94;;;8.55;60.91
78229;BME280;74448;49.082;9.152;2024-02-26T04:11:41;97515.41;;;8.56;61.01
78229;BME280;74448;49.082;9.152;2024-02-26T04:14:09;97514.56;;;8.55;61.06
78229;BME280;74448;49.082;9.152;2024-02-26T04:16:38;97493.34;;;8.57;61.00
78229;BME280;74448;49.082;9.152;2024-02-26T04:19:05;97501.25;;;8.57;60.93
78229;BME280;74448;49.082;9.152;2024-02-26T04:21:33;97505.84;;;8.55;60.92
78229;BME280;74448;49.082;9.152;2024-02-26T04:24:00;97509.69;;;8.60;60.98
78229;BME280;74448;49.082;9.152;2024-02-26T04:26:30;97492.06;;;8.61;60.79
78229;BME280;74448;49.082;9.152;2024-02-26T04:28:57;97499.97;;;8.61;60.75
78229;BME280;74448;49.082;9.152;2024-02-26T04:31:29;97498.31;;;8.60;60.88
78229;BME280;74448;49.082;9.152;2024-02-26T04:33:57;97502.22;;;8.56;60.95
78229;BME280;74448;49.082;9.152;2024-02-26T04:36:24;97512.94;;;8.54;60.94
78229;BME280;74448;49.082;9.152;2024-02-26T04:38:52;97510.13;;;8.56;61.00
78229;BME280;74448;49.082;9.152;2024-02-26T04:41:22;97510.50;;;8.61;60.84
78229;BME280;74448;49.082;9.152;2024-02-26T04:43:48;97502.59;;;8.61;60.73
78229;BME280;74448;49.082;9.152;2024-02-26T04:46:15;97502.22;;;8.56;60.80
78229;BME280;74448;49.082;9.152;2024-02-26T04:48:41;97494.50;;;8.54;60.99
78229;BME280;74448;49.082;9.152;2024-02-26T04:51:08;97485.44;;;8.57;60.83
78229;BME280;74448;49.082;9.152;2024-02-26T04:53:35;97496.38;;;8.62;60.88
78229;BME280;74448;49.082;9.152;2024-02-26T04:56:02;97486.50;;;8.64;60.59
78229;BME280;74448;49.082;9.152;2024-02-26T04:58:28;97485.31;;;8.58;60.75
78229;BME280;74448;49.082;9.152;2024-02-26T05:00:55;97479.59;;;8.63;60.57
78229;BME280;74448;49.082;9.152;2024-02-26T05:03:22;97471.53;;;8.64;60.64
78229;BME280;74448;49.082;9.152;2024-02-26T05:05:49;97458.63;;;8.53;60.71
78229;BME280;74448;49.082;9.152;2024-02-26T05:08:19;97479.53;;;8.55;61.02
78229;BME280;74448;49.082;9.152;2024-02-26T05:10:46;97478.31;;;8.49;60.95
78229;BME280;74448;49.082;9.152;2024-02-26T05:13:12;97482.44;;;8.52;60.92
78229;BME280;74448;49.082;9.152;2024-02-26T05:15:40;97484.09;;;8.53;60.96
78229;BME280;74448;49.082;9.152;2024-02-26T05:18:07;97478.31;;;8.49;60.98
78229;BME280;74448;49.082;9.152;2024-02-26T05:20:34;97489.06;;;8.56;60.78
78229;BME280;74448;49.082;9.152;2024-02-26T05:23:02;97492.41;;;8.58;60.58
78229;BME280;74448;49.082;9.152;2024-02-26T05:25:30;97489.06;;;8.56;60.98
78229;BME280;74448;49.082;9.152;2024-02-26T05:27:57;97490.22;;;8.53;60.68
78229;BME280;74448;49.082;9.152;2024-02-26T05:30:24;97488.06;;;8.57;60.60
78229;BME280;74448;49.082;9.152;2024-02-26T05:32:50;97492.41;;;8.58;60.64
78229;BME280;74448;49.082;9.152;2024-02-26T05:35:17;97480.72;;;8.60;60.50
78229;BME280;74448;49.082;9.152;2024-02-26T05:37:44;97495.31;;;8.55;60.80
78229;BME280;74448;49.082;9.152;2024-02-26T05:40:11;97498.31;;;8.60;60.60
78229;BME280;74448;49.082;9.152;2024-02-26T05:42:37;97500.28;;;8.58;60.76
78229;BME280;74448;49.082;9.152;2024-02-26T05:45:05;97497.13;;;8.54;60.75
78229;BME280;74448;49.082;9.152;2024-02-26T05:47:33;97490.34;;;8.52;60.89
78229;BME280;74448;49.082;9.152;2024-02-26T05:50:00;97508.78;;;8.52;60.83
78229;BME280;74448;49.082;9.152;2024-02-26T05:52:27;97502.97;;;8.48;60.74
78229;BME280;74448;49.082;9.152;2024-02-26T05:54:55;97503.22;;;8.55;61.01
78229;BME280;74448;49.082;9.152;2024-02-26T05:57:22;97522.75;;;8.52;60.70
78229;BME280;74448;49.082;9.152;2024-02-26T05:59:49;97531.47;;;8.53;60.84
78229;BME280;74448;49.082;9.152;2024-02-26T06:02:15;97540.81;;;8.47;61.02
78229;BME280;74448;49.082;9.152;2024-02-26T06:04:42;97541.25;;;8.42;61.26
78229;BME280;74448;49.082;9.152;2024-02-26T06:07:08;97554.72;;;8.39;61.38
78229;BME280;74448;49.082;9.152;2024-02-26T06:09:35;97556.91;;;8.44;61.20
78229;BME280;74448;49.082;9.152;2024-02-26T06:12:02;97559.84;;;8.41;61.28
78229;BME280;74448;49.082;9.152;2024-02-26T06:14:29;97576.47;;;8.41;61.35
78229;BME280;74448;49.082;9.152;2024-02-26T06:16:55;97577.28;;;8.42;61.02
78229;BME280;74448;49.082;9.152;2024-02-26T06:19:23;97587.28;;;8.38;61.42
78229;BME280;74448;49.082;9.152;2024-02-26T06:21:50;97588.38;;;8.45;61.02
78229;BME280;74448;49.082;9.152;2024-02-26T06:24:17;97579.38;;;8.38;61.19
78229;BME280;74448;49.082;9.152;2024-02-26T06:26:44;97596.09;;;8.47;61.15
78229;BME280;74448;49.082;9.152;2024-02-26T06:29:10;97602.09;;;8.39;61.13
78229;BME280;74448;49.082;9.152;2024-02-26T06:31:37;97608.34;;;8.38;61.29
78229;BME280;74448;49.082;9.152;2024-02-26T06:34:03;97611.38;;;8.34;61.58
78229;BME280;74448;49.082;9.152;2024-02-26T06:36:31;97606.28;;;8.32;61.51
78229;BME280;74448;49.082;9.152;2024-02-26T06:38:58;97592.56;;;8.29;61.61
78229;BME280;74448;49.082;9.152;2024-02-26T06:41:25;97594.06;;;8.31;61.55
78229;BME280;74448;49.082;9.152;2024-02-26T06:43:54;97585.06;;;8.34;61.68
78229;BME280;74448;49.082;9.152;2024-02-26T06:46:21;97575.63;;;8.31;61.37
78229;BME280;74448;49.082;9.152;2024-02-26T06:48:48;97569.84;;;8.28;61.50
78229;BME280;74448;49.082;9.152;2024-02-26T06:51:20;97579.97;;;8.32;61.66
78229;BME280;74448;49.082;9.152;2024-02-26T06:53:47;97576.63;;;8.30;61.61
78229;BME280;74448;49.082;9.152;2024-02-26T06:56:13;97575.81;;;8.30;61.53
78229;BME280;74448;49.082;9.152;2024-02-26T06:58:40;97576.91;;;8.27;61.63
78229;BME280;74448;49.082;9.152;2024-02-26T07:01:06;97590.59;;;8.31;61.54
78229;BME280;74448;49.082;9.152;2024-02-26T07:03:34;97589.25;;;8.27;61.80
78229;BME280;74448;49.082;9.152;2024-02-26T07:06:01;97585.78;;;8.26;61.44
78229;BME280;74448;49.082;9.152;2024-02-26T07:08:28;97589.41;;;8.25;61.69
78229;BME280;74448;49.082;9.152;2024-02-26T07:10:55;97597.97;;;8.27;61.59
78229;BME280;74448;49.082;9.152;2024-02-26T07:13:22;97605.56;;;8.30;61.82
78229;BME280;74448;49.082;9.152;2024-02-26T07:15:48;97601.41;;;8.28;61.57
78229;BME280;74448;49.082;9.152;2024-02-26T07:18:15;97606.69;;;8.28;61.37
78229;BME280;74448;49.082;9.152;2024-02-26T07:20:42;97613.91;;;8.26;61.71
78229;BME280;74448;49.082;9.152;2024-02-26T07:23:09;97623.19;;;8.30;61.60
78229;BME280;74448;49.082;9.152;2024-02-26T07:25:35;97621.66;;;8.27;61.50
78229;BME280;74448;49.082;9.152;2024-02-26T07:28:02;97632.19;;;8.27;61.59
78229;BME280;74448;49.082;9.152;2024-02-26T07:30:29;97623.63;;;8.25;61.65
78229;BME280;74448;49.082;9.152;2024-02-26T07:32:55;97628.34;;;8.21;62.04
78229;BME280;74448;49.082;9.152;2024-02-26T07:35:23;97625.53;;;8.23;61.93
78229;BME280;74448;49.082;9.152;2024-02-26T07:37:49;97641.34;;;8.23;61.52
78229;BME280;74448;49.082;9.152;2024-02-26T07:40:17;97628.59;;;8.28;61.29
78229;BME280;74448;49.082;9.152;2024-02-26T07:42:43;97641.75;;;8.28;61.82
78229;BME280;74448;49.082;9.152;2024-02-26T07:45:10;97643.84;;;8.24;61.64
78229;BME280;74448;49.082;9.152;2024-02-26T07:47:37;97647.47;;;8.23;61.69
78229;BME280;74448;49.082;9.152;2024-02-26T07:50:08;97644.28;;;8.20;61.91
78229;BME280;74448;49.082;9.152;2024-02-26T07:52:35;97653.81;;;8.21;61.78
78229;BME280;74448;49.082;9.152;2024-02-26T07:55:02;97653.13;;;8.19;61.86
78229;BME280;74448;49.082;9.152;2024-02-26T07:57:33;97651.75;;;8.15;61.90
78229;BME280;74448;49.082;9.152;2024-02-26T08:00:00;97666.00;;;8.22;61.48
78229;BME280;74448;49.082;9.152;2024-02-26T08:02:28;97662.97;;;8.17;61.48
78229;BME280;74448;49.082;9.152;2024-02-26T08:04:54;97663.81;;;8.17;62.00
78229;BME280;74448;49.082;9.152;2024-02-26T08:07:21;97669.06;;;8.17;61.79
78229;BME280;74448;49.082;9.152;2024-02-26T08:09:48;97668.25;;;8.17;62.03
78229;BME280;74448;49.082;9.152;2024-02-26T08:12:14;97664.06;;;8.24;61.46
78229;BME280;74448;49.082;9.152;2024-02-26T08:14:41;97653.97;;;8.19;61.76
78229;BME280;74448;49.082;9.152;2024-02-26T08:17:09;97658.38;;;8.19;61.59
78229;BME280;74448;49.082;9.152;2024-02-26T08:19:36;97663.25;;;8.14;62.12
78229;BME280;74448;49.082;9.152;2024-02-26T08:22:03;97662.53;;;8.21;61.89
78229;BME280;74448;49.082;9.152;2024-02-26T08:24:30;97662.97;;;8.17;62.17
78229;BME280;74448;49.082;9.152;2024-02-26T08:26:57;97665.06;;;8.13;61.62
78229;BME280;74448;49.082;9.152;2024-02-26T08:29:24;97668.53;;;8.14;62.25
78229;BME280;74448;49.082;9.152;2024-02-26T08:31:50;97661.75;;;8.11;61.88
78229;BME280;74448;49.082;9.152;2024-02-26T08:34:17;97666.88;;;8.13;62.03
78229;BME280;74448;49.082;9.152;2024-02-26T08:36:44;97668.25;;;8.17;61.76
78229;BME280;74448;49.082;9.152;2024-02-26T08:39:11;97663.53;;;8.11;61.83
78229;BME280;74448;49.082;9.152;2024-02-26T08:41:40;97661.88;;;8.10;62.27
78229;BME280;74448;49.082;9.152;2024-02-26T08:44:06;97668.78;;;8.11;62.25
78229;BME280;74448;49.082;9.152;2024-02-26T08:46:33;97664.50;;;8.10;61.90
78229;BME280;74448;49.082;9.152;2024-02-26T08:49:00;97662.72;;;8.10;61.75
78229;BME280;74448;49.082;9.152;2024-02-26T08:51:26;97665.50;;;8.09;61.95
78229;BME280;74448;49.082;9.152;2024-02-26T08:53:53;97666.16;;;8.11;62.26
78229;BME280;74448;49.082;9.152;2024-02-26T08:56:20;97672.97;;;8.13;61.64
78229;BME280;74448;49.082;9.152;2024-02-26T08:58:47;97664.78;;;8.07;62.15
78229;BME280;74448;49.082;9.152;2024-02-26T09:01:20;97662.88;;;8.09;61.73
78229;BME280;74448;49.082;9.152;2024-02-26T09:03:47;97668.78;;;8.11;62.02
78229;BME280;74448;49.082;9.152;2024-02-26T09:06:15;97675.19;;;8.08;61.84
78229;BME280;74448;49.082;9.152;2024-02-26T09:08:42;97667.28;;;8.08;61.82
78229;BME280;74448;49.082;9.152;2024-02-26T09:11:08;97675.75;;;8.12;62.10
78229;BME280;74448;49.082;9.152;2024-02-26T09:13:36;97673.53;;;8.07;62.25
78229;BME280;74448;49.082;9.152;2024-02-26T09:16:04;97669.38;;;8.05;61.98
78229;BME280;74448;49.082;9.152;2024-02-26T09:18:31;97674.66;;;8.05;62.46
78229;BME280;74448;49.082;9.152;2024-02-26T09:20:58;97664.25;;;8.13;61.80
78229;BME280;74448;49.082;9.152;2024-02-26T09:23:24;97669.66;;;8.11;61.86
78229;BME280;74448;49.082;9.152;2024-02-26T09:25:51;97677.94;;;8.07;62.14
78229;BME280;74448;49.082;9.152;2024-02-26T09:28:17;97674.38;;;8.08;61.97
78229;BME280;74448;49.082;9.152;2024-02-26T09:30:44;97673.53;;;8.07;62.23
78229;BME280;74448;49.082;9.152;2024-02-26T09:33:11;97674.38;;;8.08;62.09
78229;BME280;74448;49.082;9.152;2024-02-26T09:35:39;97669.38;;;8.05;62.17
78229;BME280;74448;49.082;9.152;2024-02-26T09:38:06;97675.31;;;8.07;61.92
78229;BME280;74448;49.082;9.152;2024-02-26T09:40:34;97673.81;;;8.04;62.16
78229;BME280;74448;49.082;9.152;2024-02-26T09:43:04;97678.25;;;8.04;62.00
78229;BME280;74448;49.082;9.152;2024-02-26T09:45:32;97678.25;;;8.04;62.20
78229;BME280;74448;49.082;9.152;2024-02-26T09:48:00;97674.91;;;8.02;62.26
78229;BME280;74448;49.082;9.152;2024-02-26T09:50:30;97681.97;;;8.01;62.35
78229;BME280;74448;49.082;9.152;2024-02-26T09:52:57;97681.31;;;7.99;62.36
78229;BME280;74448;49.082;9.152;2024-02-26T09:55:26;97685.59;;;8.00;62.44
78229;BME280;74448;49.082;9.152;2024-02-26T09:57:53;97681.00;;;8.02;62.46
78229;BME280;74448;49.082;9.152;2024-02-26T10:00:21;97678.53;;;8.01;62.40
78229;BME280;74448;49.082;9.152;2024-02-26T10:02:49;97685.44;;;8.02;61.96
78229;BME280;74448;49.082;9.152;2024-02-26T10:05:18;97686.00;;;8.05;62.42
78229;BME280;74448;49.082;9.152;2024-02-26T10:07:49;97695.69;;;8.05;62.45
78229;BME280;74448;49.082;9.152;2024-02-26T10:10:17;97683.50;;;8.04;62.01
78229;BME280;74448;49.082;9.152;2024-02-26T10:12:44;97692.38;;;8.03;62.42
78229;BME280;74448;49.082;9.152;2024-02-26T10:15:10;97682.81;;;8.02;62.17
78229;BME280;74448;49.082;9.152;2024-02-26T10:17:37;97683.50;;;8.04;62.36
78229;BME280;74448;49.082;9.152;2024-02-26T10:22:39;97674.25;;;7.99;62.56
78229;BME280;74448;49.082;9.152;2024-02-26T10:25:06;97680.19;;;8.02;62.03
78229;BME280;74448;49.082;9.152;2024-02-26T10:27:34;97690.69;;;8.02;62.58
78229;BME280;74448;49.082;9.152;2024-02-26T10:30:16;97699.56;;;8.01;62.26
78229;BME280;74448;49.082;9.152;2024-02-26T10:32:45;97695.28;;;7.99;62.46
78229;BME280;74448;49.082;9.152;2024-02-26T10:35:14;97693.22;;;7.93;62.77
78229;BME280;74448;49.082;9.152;2024-02-26T10:37:41;97703.47;;;7.96;62.21
78229;BME280;74448;49.082;9.152;2024-02-26T10:40:11;97702.34;;;7.99;62.48
78229;BME280;74448;49.082;9.152;2024-02-26T10:42:39;97709.44;;;7.98;62.24
78229;BME280;74448;49.082;9.152;2024-02-26T10:45:07;97699.84;;;7.97;62.34
78229;BME280;74448;49.082;9.152;2024-02-26T10:47:36;97699.41;;;8.02;62.19
78229;BME280;74448;49.082;9.152;2024-02-26T10:50:04;97696.94;;;8.01;62.40
78229;BME280;74448;49.082;9.152;2024-02-26T10:52:32;97692.94;;;7.96;62.24
78229;BME280;74448;49.082;9.152;2024-02-26T10:55:01;97702.06;;;8.02;62.38
78229;BME280;74448;49.082;9.152;2024-02-26T10:57:40;97703.59;;;8.05;62.14
78229;BME280;74448;49.082;9.152;2024-02-26T11:00:08;97704.84;;;8.01;62.57
78229;BME280;74448;49.082;9.152;2024-02-26T11:02:37;97694.88;;;8.04;62.06
78229;BME280;74448;49.082;9.152;2024-02-26T11:05:05;97687.13;;;8.03;62.59
78229;BME280;74448;49.082;9.152;2024-02-26T11:07:34;97706.06;;;8.06;62.58
78229;BME280;74448;49.082;9.152;2024-02-26T11:10:05;97707.88;;;8.06;62.56
78229;BME280;74448;49.082;9.152;2024-02-26T11:12:33;97709.66;;;8.05;62.56
78229;BME280;74448;49.082;9.152;2024-02-26T11:15:03;97696.28;;;7.98;62.16
78229;BME280;74448;49.082;9.152;2024-02-26T11:17:31;97714.94;;;8.05;62.64
78229;BME280;74448;49.082;9.152;2024-02-26T11:19:59;97702.59;;;8.06;62.55
78229;BME280;74448;49.082;9.152;2024-02-26T11:22:26;97707.59;;;8.09;62.31
78229;BME280;74448;49.082;9.152;2024-02-26T11:24:54;97702.34;;;8.09;62.27
78229;BME280;74448;49.082;9.152;2024-02-26T11:27:35;97704.69;;;8.12;62.38
78229;BME280;74448;49.082;9.152;2024-02-26T11:30:04;97719.66;;;8.11;62.36
78229;BME280;74448;49.082;9.152;2024-02-26T11:32:32;97722.13;;;8.13;62.30
78229;BME280;74448;49.082;9.152;2024-02-26T11:34:58;97718.53;;;8.14;62.02
78229;BME280;74448;49.082;9.152;2024-02-26T11:37:26;97708.69;;;8.16;62.30
78229;BME280;74448;49.082;9.152;2024-02-26T11:39:52;97703.44;;;8.16;62.52
78229;BME280;74448;49.082;9.152;2024-02-26T11:42:23;97705.75;;;8.19;62.33
78229;BME280;74448;49.082;9.152;2024-02-26T11:44:51;97685.97;;;8.15;62.56
78229;BME280;74448;49.082;9.152;2024-02-26T11:47:19;97709.38;;;8.18;62.31
78229;BME280;74448;49.082;9.152;2024-02-26T11:49:46;97706.75;;;8.18;62.15
78229;BME280;74448;49.082;9.152;2024-02-26T11:52:14;97705.34;;;8.23;62.27
78229;BME280;74448;49.082;9.152;2024-02-26T11:54:56;97704.50;;;8.23;62.02
78229;BME280;74448;49.082;9.152;2024-02-26T12:02:44;97704.22;;;8.26;62.16
78229;BME280;74448;49.082;9.152;2024-02-26T12:05:20;97699.66;;;8.28;62.01
78229;BME280;74448;49.082;9.152;2024-02-26T12:07:55;97702.00;;;8.31;61.79
78229;BME280;74448;49.082;9.152;2024-02-26T12:10:24;97713.88;;;8.35;61.57
78229;BME280;74448;49.082;9.152;2024-02-26T12:12:59;97715.28;;;8.39;61.80
78229;BME280;74448;49.082;9.152;2024-02-26T12:15:31;97717.81;;;8.41;61.68
78229;BME280;74448;49.082;9.152;2024-02-26T12:18:03;97710.53;;;8.53;61.32
78229;BME280;74448;49.082;9.152;2024-02-26T12:20:31;97723.69;;;8.53;61.57
78229;BME280;74448;49.082;9.152;2024-02-26T12:22:58;97715.16;;;8.41;61.23
78229;BME280;74448;49.082;9.152;2024-02-26T12:25:27;97722.47;;;8.47;61.57
78229;BME280;74448;49.082;9.152;2024-02-26T12:27:54;97719.97;;;8.55;61.61
78229;BME280;74448;49.082;9.152;2024-02-26T12:30:22;97719.41;;;8.61;61.04
78229;BME280;74448;49.082;9.152;2024-02-26T12:32:51;97731.19;;;8.57;61.51
78229;BME280;74448;49.082;9.152;2024-02-26T12:35:18;97727.72;;;8.57;61.50
78229;BME280;74448;49.082;9.152;2024-02-26T12:37:44;97729.38;;;8.58;61.50
78229;BME280;74448;49.082;9.152;2024-02-26T12:40:12;97732.97;;;8.57;61.55
78229;BME280;74448;49.082;9.152;2024-02-26T12:42:39;97729.38;;;8.58;61.61
78229;BME280;74448;49.082;9.152;2024-02-26T12:45:08;97730.06;;;8.60;61.50
78229;BME280;74448;49.082;9.152;2024-02-26T12:47:39;97736.03;;;8.62;61.49
78229;BME280;74448;49.082;9.152;2024-02-26T12:50:06;97739.06;;;8.67;61.49
78229;BME280;74448;49.082;9.152;2024-02-26T12:52:39;97746.97;;;8.67;61.22
78229;BME280;74448;49.082;9.152;2024-02-26T12:55:06;97738.22;;;8.66;60.94
78229;BME280;74448;49.082;9.152;2024-02-26T12:57:37;97745.16;;;8.67;61.47
78229;BME280;74448;49.082;9.152;2024-02-26T13:00:05;97731.59;;;8.62;61.37
78229;BME280;74448;49.082;9.152;2024-02-26T13:02:33;97739.59;;;8.70;61.23
78229;BME280;74448;49.082;9.152;2024-02-26T13:05:02;97734.72;;;8.76;61.14
78229;BME280;74448;49.082;9.152;2024-02-26T13:07:29;97742.78;;;8.74;61.08
78229;BME280;74448;49.082;9.152;2024-02-26T13:09:56;97739.00;;;8.77;61.26
78229;BME280;74448;49.082;9.152;2024-02-26T13:12:23;97743.72;;;8.83;61.02
78229;BME280;74448;49.082;9.152;2024-02-26T13:15:03;97737.03;;;8.88;60.80
78229;BME280;74448;49.082;9.152;2024-02-26T13:17:33;97738.84;;;8.88;60.74
78229;BME280;74448;49.082;9.152;2024-02-26T13:20:00;97743.00;;;8.90;60.69